sensor_id;sensor_type;location;lat;lon;timestamp;temperature;humidity
39675;DHT22;27790;50.840;4.386;2023-12-20T00:00:05;8.30;99.90
39675;DHT22;27790;50.840;4.386;2023-12-20T00:02:31;8.30;99.90
39675;DHT22;27790;50.840;4.386;2023-12-20T00:04:57;8.30;99.90
39675;DHT22;27790;50.840;4.386;2023-12-20T00:07:22;8.20;99.90
39675;DHT22;27790;50.840;4.386;2023-12-20T00:09:48;8.20;99.90
39675;DHT22;27790;50.840;4.386;2023-12-20T00:12:13;8.30;99.90
39675;DHT22;27790;50.840;4.386;2023-12-20T00:14:39;8.50;99.90
39675;DHT22;27790;50.840;4.386;2023-12-20T00:17:04;8.60;99.90
39675;DHT22;27790;50.840;4.386;2023-12-20T00:19:30;8.50;99.90
39675;DHT22;27790;50.840;4.386;2023-12-20T00:21:55;8.40;99.90
39675;DHT22;27790;50.840;4.386;2023-12-20T00:24:21;8.30;99.90
39675;DHT22;27790;50.840;4.386;2023-12-20T00:26:46;8.30;99.90
39675;DHT22;27790;50.840;4.386;2023-12-20T00:29:12;8.30;99.90
39675;DHT22;27790;50.840;4.386;2023-12-20T00:31:37;8.20;99.90
39675;DHT22;27790;50.840;4.386;2023-12-20T00:34:03;8.20;99.90
39675;DHT22;27790;50.840;4.386;2023-12-20T00:36:29;8.10;99.90
39675;DHT22;27790;50.840;4.386;2023-12-20T00:38:54;8.10;99.90
39675;DHT22;27790;50.840;4.386;2023-12-20T00:41:20;8.00;99.90
39675;DHT22;27790;50.840;4.386;2023-12-20T00:43:45;8.00;99.90
39675;DHT22;27790;50.840;4.386;2023-12-20T00:46:11;8.10;99.90
39675;DHT22;27790;50.840;4.386;2023-12-20T00:48:36;8.00;99.90
39675;DHT22;27790;50.840;4.386;2023-12-20T00:51:02;8.00;99.90
39675;DHT22;27790;50.840;4.386;2023-12-20T00:53:28;7.90;99.90
39675;DHT22;27790;50.840;4.386;2023-12-20T00:55:53;7.90;99.90
39675;DHT22;27790;50.840;4.386;2023-12-20T00:58:19;7.80;99.90
39675;DHT22;27790;50.840;4.386;2023-12-20T01:00:44;7.80;99.90
39675;DHT22;27790;50.840;4.386;2023-12-20T01:03:10;7.80;99.90
39675;DHT22;27790;50.840;4.386;2023-12-20T01:05:36;7.80;99.90
39675;DHT22;27790;50.840;4.386;2023-12-20T01:08:01;7.80;99.90
39675;DHT22;27790;50.840;4.386;2023-12-20T01:10:28;7.80;99.90
39675;DHT22;27790;50.840;4.386;2023-12-20T01:12:54;7.70;99.90
39675;DHT22;27790;50.840;4.386;2023-12-20T01:15:20;7.70;99.90
39675;DHT22;27790;50.840;4.386;2023-12-20T01:17:45;7.60;99.90
39675;DHT22;27790;50.840;4.386;2023-12-20T01:20:11;7.70;99.90
39675;DHT22;27790;50.840;4.386;2023-12-20T01:22:37;7.70;99.90
39675;DHT22;27790;50.840;4.386;2023-12-20T01:25:02;7.70;99.90
39675;DHT22;27790;50.840;4.386;2023-12-20T01:27:28;7.70;99.90
39675;DHT22;27790;50.840;4.386;2023-12-20T01:29:54;7.70;99.90
39675;DHT22;27790;50.840;4.386;2023-12-20T01:32:20;7.60;99.90
39675;DHT22;27790;50.840;4.386;2023-12-20T01:34:45;7.60;99.90
39675;DHT22;27790;50.840;4.386;2023-12-20T01:37:11;7.60;99.90
39675;DHT22;27790;50.840;4.386;2023-12-20T01:39:36;7.70;99.90
39675;DHT22;27790;50.840;4.386;2023-12-20T01:42:02;7.60;99.90
39675;DHT22;27790;50.840;4.386;2023-12-20T01:44:27;7.60;99.90
39675;DHT22;27790;50.840;4.386;2023-12-20T01:46:53;7.60;99.90
39675;DHT22;27790;50.840;4.386;2023-12-20T01:49:19;7.60;99.90
39675;DHT22;27790;50.840;4.386;2023-12-20T01:51:45;7.60;99.90
39675;DHT22;27790;50.840;4.386;2023-12-20T01:54:11;7.60;99.90
39675;DHT22;27790;50.840;4.386;2023-12-20T01:56:38;7.60;99.90
39675;DHT22;27790;50.840;4.386;2023-12-20T01:59:04;7.60;99.90
39675;DHT22;27790;50.840;4.386;2023-12-20T02:01:30;7.70;99.90
39675;DHT22;27790;50.840;4.386;2023-12-20T02:03:56;7.70;99.90
39675;DHT22;27790;50.840;4.386;2023-12-20T02:06:23;7.90;99.90
39675;DHT22;27790;50.840;4.386;2023-12-20T02:08:49;7.90;99.90
39675;DHT22;27790;50.840;4.386;2023-12-20T02:11:15;7.80;99.90
39675;DHT22;27790;50.840;4.386;2023-12-20T02:13:41;7.90;99.90
39675;DHT22;27790;50.840;4.386;2023-12-20T02:16:07;7.70;99.90
39675;DHT22;27790;50.840;4.386;2023-12-20T02:18:33;7.60;99.90
39675;DHT22;27790;50.840;4.386;2023-12-20T02:20:58;7.60;99.90
39675;DHT22;27790;50.840;4.386;2023-12-20T02:23:24;7.50;99.90
39675;DHT22;27790;50.840;4.386;2023-12-20T02:25:49;7.40;99.90
39675;DHT22;27790;50.840;4.386;2023-12-20T02:28:15;7.40;99.90
39675;DHT22;27790;50.840;4.386;2023-12-20T02:30:41;7.40;99.90
39675;DHT22;27790;50.840;4.386;2023-12-20T02:33:08;7.50;99.90
39675;DHT22;27790;50.840;4.386;2023-12-20T02:35:36;7.50;99.90
39675;DHT22;27790;50.840;4.386;2023-12-20T02:38:02;7.40;99.90
39675;DHT22;27790;50.840;4.386;2023-12-20T02:40:27;7.40;99.90
39675;DHT22;27790;50.840;4.386;2023-12-20T02:42:53;7.40;99.90
39675;DHT22;27790;50.840;4.386;2023-12-20T02:45:18;7.40;99.90
39675;DHT22;27790;50.840;4.386;2023-12-20T02:47:44;7.50;99.90
39675;DHT22;27790;50.840;4.386;2023-12-20T02:50:09;7.50;99.90
39675;DHT22;27790;50.840;4.386;2023-12-20T02:52:35;7.50;99.90
39675;DHT22;27790;50.840;4.386;2023-12-20T02:55:00;7.50;99.90
39675;DHT22;27790;50.840;4.386;2023-12-20T02:57:26;7.50;99.90
39675;DHT22;27790;50.840;4.386;2023-12-20T02:59:51;7.50;99.90
39675;DHT22;27790;50.840;4.386;2023-12-20T03:02:17;7.50;99.90
39675;DHT22;27790;50.840;4.386;2023-12-20T03:04:42;7.50;99.90
39675;DHT22;27790;50.840;4.386;2023-12-20T03:07:08;7.50;99.90
39675;DHT22;27790;50.840;4.386;2023-12-20T03:09:34;7.70;99.90
39675;DHT22;27790;50.840;4.386;2023-12-20T03:11:59;7.80;99.90
39675;DHT22;27790;50.840;4.386;2023-12-20T03:14:25;7.90;99.90
39675;DHT22;27790;50.840;4.386;2023-12-20T03:16:50;8.00;99.90
39675;DHT22;27790;50.840;4.386;2023-12-20T03:19:17;8.00;99.90
39675;DHT22;27790;50.840;4.386;2023-12-20T03:21:43;8.10;99.90
39675;DHT22;27790;50.840;4.386;2023-12-20T03:24:08;8.10;99.90
39675;DHT22;27790;50.840;4.386;2023-12-20T03:26:34;8.10;99.90
39675;DHT22;27790;50.840;4.386;2023-12-20T03:28:59;8.10;99.90
39675;DHT22;27790;50.840;4.386;2023-12-20T03:31:25;8.10;99.90
39675;DHT22;27790;50.840;4.386;2023-12-20T03:33:50;8.10;99.90
39675;DHT22;27790;50.840;4.386;2023-12-20T03:36:17;8.10;99.90
39675;DHT22;27790;50.840;4.386;2023-12-20T03:38:43;8.10;99.90
39675;DHT22;27790;50.840;4.386;2023-12-20T03:41:08;8.10;99.90
39675;DHT22;27790;50.840;4.386;2023-12-20T03:43:34;8.30;99.90
39675;DHT22;27790;50.840;4.386;2023-12-20T03:45:59;8.20;99.90
39675;DHT22;27790;50.840;4.386;2023-12-20T03:48:25;8.10;99.90
39675;DHT22;27790;50.840;4.386;2023-12-20T03:50:51;8.00;99.90
39675;DHT22;27790;50.840;4.386;2023-12-20T03:53:17;7.90;99.90
39675;DHT22;27790;50.840;4.386;2023-12-20T03:55:42;8.00;99.90
39675;DHT22;27790;50.840;4.386;2023-12-20T03:58:08;8.10;99.90
39675;DHT22;27790;50.840;4.386;2023-12-20T04:00:33;8.10;99.90
39675;DHT22;27790;50.840;4.386;2023-12-20T04:02:59;8.20;99.90
39675;DHT22;27790;50.840;4.386;2023-12-20T04:05:24;8.30;99.90
39675;DHT22;27790;50.840;4.386;2023-12-20T04:07:50;8.30;99.90
39675;DHT22;27790;50.840;4.386;2023-12-20T04:10:16;8.40;99.90
39675;DHT22;27790;50.840;4.386;2023-12-20T04:12:41;8.40;99.90
39675;DHT22;27790;50.840;4.386;2023-12-20T04:15:07;8.40;99.90
39675;DHT22;27790;50.840;4.386;2023-12-20T04:17:35;8.40;99.90
39675;DHT22;27790;50.840;4.386;2023-12-20T04:20:01;8.30;99.90
39675;DHT22;27790;50.840;4.386;2023-12-20T04:22:27;8.20;99.90
39675;DHT22;27790;50.840;4.386;2023-12-20T04:24:52;8.20;99.90
39675;DHT22;27790;50.840;4.386;2023-12-20T04:27:18;8.10;99.90
39675;DHT22;27790;50.840;4.386;2023-12-20T04:29:43;8.10;99.90
39675;DHT22;27790;50.840;4.386;2023-12-20T04:32:09;8.00;99.90
39675;DHT22;27790;50.840;4.386;2023-12-20T04:34:35;8.00;99.90
39675;DHT22;27790;50.840;4.386;2023-12-20T04:37:00;7.90;99.90
39675;DHT22;27790;50.840;4.386;2023-12-20T04:39:27;7.90;99.90
39675;DHT22;27790;50.840;4.386;2023-12-20T04:41:52;7.90;99.90
39675;DHT22;27790;50.840;4.386;2023-12-20T04:44:18;8.00;99.90
39675;DHT22;27790;50.840;4.386;2023-12-20T04:46:44;8.00;99.90
39675;DHT22;27790;50.840;4.386;2023-12-20T04:49:09;8.00;99.90
39675;DHT22;27790;50.840;4.386;2023-12-20T04:51:35;8.00;99.90
39675;DHT22;27790;50.840;4.386;2023-12-20T04:54:02;8.00;99.90
39675;DHT22;27790;50.840;4.386;2023-12-20T04:56:27;8.00;99.90
39675;DHT22;27790;50.840;4.386;2023-12-20T04:58:53;8.00;99.90
39675;DHT22;27790;50.840;4.386;2023-12-20T05:01:19;8.10;99.90
39675;DHT22;27790;50.840;4.386;2023-12-20T05:03:44;8.00;99.90
39675;DHT22;27790;50.840;4.386;2023-12-20T05:06:10;8.00;99.90
39675;DHT22;27790;50.840;4.386;2023-12-20T05:08:36;8.00;99.90
39675;DHT22;27790;50.840;4.386;2023-12-20T05:11:02;8.20;99.90
39675;DHT22;27790;50.840;4.386;2023-12-20T05:13:27;8.20;99.90
39675;DHT22;27790;50.840;4.386;2023-12-20T05:15:53;8.30;99.90
39675;DHT22;27790;50.840;4.386;2023-12-20T05:18:20;8.30;99.90
39675;DHT22;27790;50.840;4.386;2023-12-20T05:20:46;8.30;99.90
39675;DHT22;27790;50.840;4.386;2023-12-20T05:23:12;8.20;99.90
39675;DHT22;27790;50.840;4.386;2023-12-20T05:25:38;8.10;99.90
39675;DHT22;27790;50.840;4.386;2023-12-20T05:28:04;8.00;99.90
39675;DHT22;27790;50.840;4.386;2023-12-20T05:30:30;7.90;99.90
39675;DHT22;27790;50.840;4.386;2023-12-20T05:32:55;7.80;99.90
39675;DHT22;27790;50.840;4.386;2023-12-20T05:35:21;7.80;99.90
39675;DHT22;27790;50.840;4.386;2023-12-20T05:37:48;7.80;99.90
39675;DHT22;27790;50.840;4.386;2023-12-20T05:40:14;7.80;99.90
39675;DHT22;27790;50.840;4.386;2023-12-20T05:42:40;7.90;99.90
39675;DHT22;27790;50.840;4.386;2023-12-20T05:45:05;7.90;99.90
39675;DHT22;27790;50.840;4.386;2023-12-20T05:47:31;7.80;99.90
39675;DHT22;27790;50.840;4.386;2023-12-20T05:49:57;7.80;99.90
39675;DHT22;27790;50.840;4.386;2023-12-20T05:52:22;7.70;99.90
39675;DHT22;27790;50.840;4.386;2023-12-20T05:54:48;7.60;99.90
39675;DHT22;27790;50.840;4.386;2023-12-20T05:57:13;7.50;99.90
39675;DHT22;27790;50.840;4.386;2023-12-20T05:59:39;7.60;99.90
39675;DHT22;27790;50.840;4.386;2023-12-20T06:02:05;7.70;99.90
39675;DHT22;27790;50.840;4.386;2023-12-20T06:04:30;7.70;99.90
39675;DHT22;27790;50.840;4.386;2023-12-20T06:06:56;7.70;99.90
39675;DHT22;27790;50.840;4.386;2023-12-20T06:09:22;7.60;99.90
39675;DHT22;27790;50.840;4.386;2023-12-20T06:11:47;7.60;99.90
39675;DHT22;27790;50.840;4.386;2023-12-20T06:14:13;7.70;99.90
39675;DHT22;27790;50.840;4.386;2023-12-20T06:16:38;7.70;99.90
39675;DHT22;27790;50.840;4.386;2023-12-20T06:19:04;7.90;99.90
39675;DHT22;27790;50.840;4.386;2023-12-20T06:21:29;7.80;99.90
39675;DHT22;27790;50.840;4.386;2023-12-20T06:23:55;7.90;99.90
39675;DHT22;27790;50.840;4.386;2023-12-20T06:26:20;7.90;99.90
39675;DHT22;27790;50.840;4.386;2023-12-20T06:28:46;8.00;99.90
39675;DHT22;27790;50.840;4.386;2023-12-20T06:31:11;7.90;99.90
39675;DHT22;27790;50.840;4.386;2023-12-20T06:33:38;7.90;99.90
39675;DHT22;27790;50.840;4.386;2023-12-20T06:36:06;8.00;99.90
39675;DHT22;27790;50.840;4.386;2023-12-20T06:38:31;8.10;99.90
39675;DHT22;27790;50.840;4.386;2023-12-20T06:40:57;8.10;99.90
39675;DHT22;27790;50.840;4.386;2023-12-20T06:43:24;8.10;99.90
39675;DHT22;27790;50.840;4.386;2023-12-20T06:45:49;7.90;99.90
39675;DHT22;27790;50.840;4.386;2023-12-20T06:48:15;7.70;99.90
39675;DHT22;27790;50.840;4.386;2023-12-20T06:50:40;7.80;99.90
39675;DHT22;27790;50.840;4.386;2023-12-20T06:53:06;7.90;99.90
39675;DHT22;27790;50.840;4.386;2023-12-20T06:55:35;7.90;99.90
39675;DHT22;27790;50.840;4.386;2023-12-20T06:58:03;7.70;99.90
39675;DHT22;27790;50.840;4.386;2023-12-20T07:00:28;7.60;99.90
39675;DHT22;27790;50.840;4.386;2023-12-20T07:02:54;7.40;99.90
39675;DHT22;27790;50.840;4.386;2023-12-20T07:05:20;7.30;99.90
39675;DHT22;27790;50.840;4.386;2023-12-20T07:07:46;7.30;99.90
39675;DHT22;27790;50.840;4.386;2023-12-20T07:10:12;7.20;99.90
39675;DHT22;27790;50.840;4.386;2023-12-20T07:12:38;7.20;99.90
39675;DHT22;27790;50.840;4.386;2023-12-20T07:15:04;7.20;99.90
39675;DHT22;27790;50.840;4.386;2023-12-20T07:17:31;7.20;99.90
39675;DHT22;27790;50.840;4.386;2023-12-20T07:19:58;7.30;99.90
39675;DHT22;27790;50.840;4.386;2023-12-20T07:22:24;7.40;99.90
39675;DHT22;27790;50.840;4.386;2023-12-20T07:24:49;7.40;99.90
39675;DHT22;27790;50.840;4.386;2023-12-20T07:27:17;7.30;99.90
39675;DHT22;27790;50.840;4.386;2023-12-20T07:29:43;7.30;99.90
39675;DHT22;27790;50.840;4.386;2023-12-20T07:32:08;7.20;99.90
39675;DHT22;27790;50.840;4.386;2023-12-20T07:34:34;7.10;99.90
39675;DHT22;27790;50.840;4.386;2023-12-20T07:36:59;7.10;99.90
39675;DHT22;27790;50.840;4.386;2023-12-20T07:39:25;7.00;99.90
39675;DHT22;27790;50.840;4.386;2023-12-20T07:41:50;7.00;99.90
39675;DHT22;27790;50.840;4.386;2023-12-20T07:44:16;7.00;99.90
39675;DHT22;27790;50.840;4.386;2023-12-20T07:46:41;7.00;99.90
39675;DHT22;27790;50.840;4.386;2023-12-20T07:49:07;6.90;99.90
39675;DHT22;27790;50.840;4.386;2023-12-20T07:51:34;6.90;99.90
39675;DHT22;27790;50.840;4.386;2023-12-20T07:53:59;6.90;99.90
39675;DHT22;27790;50.840;4.386;2023-12-20T07:56:25;7.00;99.90
39675;DHT22;27790;50.840;4.386;2023-12-20T07:58:50;6.90;99.90
39675;DHT22;27790;50.840;4.386;2023-12-20T08:01:16;7.00;99.90
39675;DHT22;27790;50.840;4.386;2023-12-20T08:03:43;7.10;99.90
39675;DHT22;27790;50.840;4.386;2023-12-20T08:06:09;7.10;99.90
39675;DHT22;27790;50.840;4.386;2023-12-20T08:08:34;7.10;99.90
39675;DHT22;27790;50.840;4.386;2023-12-20T08:11:00;7.00;99.90
39675;DHT22;27790;50.840;4.386;2023-12-20T08:13:26;7.00;99.90
39675;DHT22;27790;50.840;4.386;2023-12-20T08:15:52;7.00;99.90
39675;DHT22;27790;50.840;4.386;2023-12-20T08:18:18;7.00;99.90
39675;DHT22;27790;50.840;4.386;2023-12-20T08:20:44;7.00;99.90
39675;DHT22;27790;50.840;4.386;2023-12-20T08:23:09;7.10;99.90
39675;DHT22;27790;50.840;4.386;2023-12-20T08:25:35;7.20;99.90
39675;DHT22;27790;50.840;4.386;2023-12-20T08:28:02;7.20;99.90
39675;DHT22;27790;50.840;4.386;2023-12-20T08:30:28;7.10;99.90
39675;DHT22;27790;50.840;4.386;2023-12-20T08:32:55;7.20;99.90
39675;DHT22;27790;50.840;4.386;2023-12-20T08:35:20;7.30;99.90
39675;DHT22;27790;50.840;4.386;2023-12-20T08:37:46;7.30;99.90
39675;DHT22;27790;50.840;4.386;2023-12-20T08:40:11;7.40;99.90
39675;DHT22;27790;50.840;4.386;2023-12-20T08:42:37;7.50;99.90
39675;DHT22;27790;50.840;4.386;2023-12-20T08:45:03;7.50;99.90
39675;DHT22;27790;50.840;4.386;2023-12-20T08:47:29;7.60;99.90
39675;DHT22;27790;50.840;4.386;2023-12-20T08:49:55;7.60;99.90
39675;DHT22;27790;50.840;4.386;2023-12-20T08:52:25;7.60;99.90
39675;DHT22;27790;50.840;4.386;2023-12-20T08:54:52;7.60;99.90
39675;DHT22;27790;50.840;4.386;2023-12-20T08:57:20;7.50;99.90
39675;DHT22;27790;50.840;4.386;2023-12-20T08:59:47;7.50;99.90
39675;DHT22;27790;50.840;4.386;2023-12-20T09:02:13;7.50;99.90
39675;DHT22;27790;50.840;4.386;2023-12-20T09:04:39;7.50;99.90
39675;DHT22;27790;50.840;4.386;2023-12-20T09:07:05;7.60;99.90
39675;DHT22;27790;50.840;4.386;2023-12-20T09:09:30;7.60;99.90
39675;DHT22;27790;50.840;4.386;2023-12-20T09:11:57;7.60;99.90
39675;DHT22;27790;50.840;4.386;2023-12-20T09:14:23;7.70;99.90
39675;DHT22;27790;50.840;4.386;2023-12-20T09:16:48;7.80;99.90
39675;DHT22;27790;50.840;4.386;2023-12-20T09:19:17;7.80;99.90
39675;DHT22;27790;50.840;4.386;2023-12-20T09:21:43;7.90;99.90
39675;DHT22;27790;50.840;4.386;2023-12-20T09:24:08;8.00;99.90
39675;DHT22;27790;50.840;4.386;2023-12-20T09:26:34;8.00;99.90
39675;DHT22;27790;50.840;4.386;2023-12-20T09:29:00;8.10;99.90
39675;DHT22;27790;50.840;4.386;2023-12-20T09:31:25;8.20;99.90
39675;DHT22;27790;50.840;4.386;2023-12-20T09:33:51;8.20;99.90
39675;DHT22;27790;50.840;4.386;2023-12-20T09:36:16;8.20;99.90
39675;DHT22;27790;50.840;4.386;2023-12-20T09:38:42;8.30;99.90
39675;DHT22;27790;50.840;4.386;2023-12-20T09:41:07;8.40;99.90
39675;DHT22;27790;50.840;4.386;2023-12-20T09:43:37;8.50;99.90
39675;DHT22;27790;50.840;4.386;2023-12-20T09:46:05;8.70;99.90
39675;DHT22;27790;50.840;4.386;2023-12-20T09:48:31;8.80;99.90
39675;DHT22;27790;50.840;4.386;2023-12-20T09:50:59;8.90;99.90
39675;DHT22;27790;50.840;4.386;2023-12-20T09:53:25;9.00;99.90
39675;DHT22;27790;50.840;4.386;2023-12-20T09:55:57;9.10;99.90
39675;DHT22;27790;50.840;4.386;2023-12-20T09:58:24;9.20;99.90
39675;DHT22;27790;50.840;4.386;2023-12-20T10:00:50;9.30;99.90
39675;DHT22;27790;50.840;4.386;2023-12-20T10:03:17;9.30;99.90
39675;DHT22;27790;50.840;4.386;2023-12-20T10:05:46;9.40;99.90
39675;DHT22;27790;50.840;4.386;2023-12-20T10:08:14;9.40;99.90
39675;DHT22;27790;50.840;4.386;2023-12-20T10:10:40;9.40;99.90
39675;DHT22;27790;50.840;4.386;2023-12-20T10:13:10;9.30;99.90
39675;DHT22;27790;50.840;4.386;2023-12-20T10:15:37;9.20;99.90
39675;DHT22;27790;50.840;4.386;2023-12-20T10:18:03;9.00;99.90
39675;DHT22;27790;50.840;4.386;2023-12-20T10:20:30;9.20;99.90
39675;DHT22;27790;50.840;4.386;2023-12-20T10:22:56;9.50;99.90
39675;DHT22;27790;50.840;4.386;2023-12-20T10:25:22;9.50;99.90
39675;DHT22;27790;50.840;4.386;2023-12-20T10:27:47;9.70;99.90
39675;DHT22;27790;50.840;4.386;2023-12-20T10:30:16;9.70;99.90
39675;DHT22;27790;50.840;4.386;2023-12-20T10:32:42;9.70;99.90
39675;DHT22;27790;50.840;4.386;2023-12-20T10:37:37;9.90;99.90
39675;DHT22;27790;50.840;4.386;2023-12-20T10:40:04;9.90;99.90
39675;DHT22;27790;50.840;4.386;2023-12-20T10:42:31;10.00;99.90
39675;DHT22;27790;50.840;4.386;2023-12-20T10:44:59;10.00;99.90
39675;DHT22;27790;50.840;4.386;2023-12-20T10:47:25;10.10;99.90
39675;DHT22;27790;50.840;4.386;2023-12-20T10:49:52;10.00;99.90
39675;DHT22;27790;50.840;4.386;2023-12-20T10:52:18;10.00;99.90
39675;DHT22;27790;50.840;4.386;2023-12-20T10:54:44;10.00;99.90
39675;DHT22;27790;50.840;4.386;2023-12-20T10:57:11;10.10;99.90
39675;DHT22;27790;50.840;4.386;2023-12-20T10:59:37;10.10;99.90
39675;DHT22;27790;50.840;4.386;2023-12-20T11:02:04;10.20;99.90
39675;DHT22;27790;50.840;4.386;2023-12-20T11:05:06;10.10;99.90
39675;DHT22;27790;50.840;4.386;2023-12-20T11:07:36;10.10;99.90
39675;DHT22;27790;50.840;4.386;2023-12-20T11:10:11;10.20;99.90
39675;DHT22;27790;50.840;4.386;2023-12-20T11:12:48;10.30;99.90
39675;DHT22;27790;50.840;4.386;2023-12-20T11:15:17;10.20;99.90
39675;DHT22;27790;50.840;4.386;2023-12-20T11:17:45;10.20;99.90
39675;DHT22;27790;50.840;4.386;2023-12-20T11:20:11;10.20;99.90
39675;DHT22;27790;50.840;4.386;2023-12-20T11:22:37;10.40;99.90
39675;DHT22;27790;50.840;4.386;2023-12-20T11:25:11;10.40;99.90
39675;DHT22;27790;50.840;4.386;2023-12-20T11:27:40;10.40;99.90
39675;DHT22;27790;50.840;4.386;2023-12-20T11:30:07;10.40;99.90
39675;DHT22;27790;50.840;4.386;2023-12-20T11:32:35;10.30;99.90
39675;DHT22;27790;50.840;4.386;2023-12-20T11:37:36;10.20;99.90
39675;DHT22;27790;50.840;4.386;2023-12-20T11:40:07;10.10;99.90
39675;DHT22;27790;50.840;4.386;2023-12-20T11:42:41;10.10;99.90
39675;DHT22;27790;50.840;4.386;2023-12-20T11:45:12;10.10;99.90
39675;DHT22;27790;50.840;4.386;2023-12-20T11:47:40;10.10;99.90
39675;DHT22;27790;50.840;4.386;2023-12-20T11:50:07;10.10;99.90
39675;DHT22;27790;50.840;4.386;2023-12-20T11:52:33;10.10;99.90
39675;DHT22;27790;50.840;4.386;2023-12-20T11:54:58;10.10;99.90
39675;DHT22;27790;50.840;4.386;2023-12-20T11:57:25;10.10;99.90
39675;DHT22;27790;50.840;4.386;2023-12-20T11:59:50;10.10;99.90
39675;DHT22;27790;50.840;4.386;2023-12-20T12:02:16;10.20;99.90
39675;DHT22;27790;50.840;4.386;2023-12-20T12:04:42;10.20;99.90
39675;DHT22;27790;50.840;4.386;2023-12-20T12:07:07;10.40;99.90
39675;DHT22;27790;50.840;4.386;2023-12-20T12:09:33;10.40;99.90
39675;DHT22;27790;50.840;4.386;2023-12-20T12:11:59;10.40;99.90
39675;DHT22;27790;50.840;4.386;2023-12-20T12:14:25;10.30;99.90
39675;DHT22;27790;50.840;4.386;2023-12-20T12:16:51;10.30;99.90
39675;DHT22;27790;50.840;4.386;2023-12-20T12:19:25;10.40;99.90
39675;DHT22;27790;50.840;4.386;2023-12-20T12:22:04;10.50;99.90
39675;DHT22;27790;50.840;4.386;2023-12-20T12:24:32;10.50;99.90
39675;DHT22;27790;50.840;4.386;2023-12-20T12:26:58;10.50;99.90
39675;DHT22;27790;50.840;4.386;2023-12-20T12:29:24;10.50;99.90
39675;DHT22;27790;50.840;4.386;2023-12-20T12:31:50;10.50;99.90
39675;DHT22;27790;50.840;4.386;2023-12-20T12:34:17;10.60;99.90
39675;DHT22;27790;50.840;4.386;2023-12-20T12:36:43;10.60;99.90
39675;DHT22;27790;50.840;4.386;2023-12-20T12:39:11;10.50;99.90
39675;DHT22;27790;50.840;4.386;2023-12-20T12:41:37;10.40;99.90
39675;DHT22;27790;50.840;4.386;2023-12-20T12:44:02;10.50;99.90
39675;DHT22;27790;50.840;4.386;2023-12-20T12:46:28;10.30;99.90
39675;DHT22;27790;50.840;4.386;2023-12-20T12:48:54;10.40;99.90
39675;DHT22;27790;50.840;4.386;2023-12-20T12:51:20;10.40;99.90
39675;DHT22;27790;50.840;4.386;2023-12-20T12:53:45;10.40;99.90
39675;DHT22;27790;50.840;4.386;2023-12-20T12:56:12;10.30;99.90
39675;DHT22;27790;50.840;4.386;2023-12-20T12:58:39;10.40;99.90
39675;DHT22;27790;50.840;4.386;2023-12-20T13:01:04;10.50;99.90
39675;DHT22;27790;50.840;4.386;2023-12-20T13:03:30;10.50;99.90
39675;DHT22;27790;50.840;4.386;2023-12-20T13:05:56;10.50;99.90
39675;DHT22;27790;50.840;4.386;2023-12-20T13:08:21;10.50;99.90
39675;DHT22;27790;50.840;4.386;2023-12-20T13:10:47;10.50;99.90
39675;DHT22;27790;50.840;4.386;2023-12-20T13:13:13;10.50;99.90
39675;DHT22;27790;50.840;4.386;2023-12-20T13:15:38;10.50;99.90
39675;DHT22;27790;50.840;4.386;2023-12-20T13:18:04;10.60;99.90
39675;DHT22;27790;50.840;4.386;2023-12-20T13:20:31;10.50;99.90
39675;DHT22;27790;50.840;4.386;2023-12-20T13:22:57;10.50;99.90
39675;DHT22;27790;50.840;4.386;2023-12-20T13:25:22;10.60;99.90
39675;DHT22;27790;50.840;4.386;2023-12-20T13:27:49;10.70;99.90
39675;DHT22;27790;50.840;4.386;2023-12-20T13:30:16;10.80;99.90
39675;DHT22;27790;50.840;4.386;2023-12-20T13:32:42;10.80;99.90
39675;DHT22;27790;50.840;4.386;2023-12-20T13:35:08;10.80;99.90
39675;DHT22;27790;50.840;4.386;2023-12-20T13:37:34;10.80;99.90
39675;DHT22;27790;50.840;4.386;2023-12-20T13:40:00;10.90;99.90
39675;DHT22;27790;50.840;4.386;2023-12-20T13:42:25;10.90;99.90
39675;DHT22;27790;50.840;4.386;2023-12-20T13:44:53;10.90;99.90
39675;DHT22;27790;50.840;4.386;2023-12-20T13:47:18;10.90;99.90
39675;DHT22;27790;50.840;4.386;2023-12-20T13:49:44;10.90;99.90
39675;DHT22;27790;50.840;4.386;2023-12-20T13:52:10;10.90;99.90
39675;DHT22;27790;50.840;4.386;2023-12-20T13:54:37;10.90;99.90
39675;DHT22;27790;50.840;4.386;2023-12-20T13:57:02;10.90;99.90
39675;DHT22;27790;50.840;4.386;2023-12-20T13:59:28;10.80;99.90
39675;DHT22;27790;50.840;4.386;2023-12-20T14:01:54;10.80;99.90
39675;DHT22;27790;50.840;4.386;2023-12-20T14:04:20;10.90;99.90
39675;DHT22;27790;50.840;4.386;2023-12-20T14:06:47;10.90;99.90
39675;DHT22;27790;50.840;4.386;2023-12-20T14:09:12;10.90;99.90
39675;DHT22;27790;50.840;4.386;2023-12-20T14:11:38;10.90;99.90
39675;DHT22;27790;50.840;4.386;2023-12-20T14:14:07;10.90;99.90
39675;DHT22;27790;50.840;4.386;2023-12-20T14:16:33;10.90;99.90
39675;DHT22;27790;50.840;4.386;2023-12-20T14:18:59;11.00;99.90
39675;DHT22;27790;50.840;4.386;2023-12-20T14:21:24;11.10;99.90
39675;DHT22;27790;50.840;4.386;2023-12-20T14:23:50;11.10;99.90
39675;DHT22;27790;50.840;4.386;2023-12-20T14:26:17;11.00;99.90
39675;DHT22;27790;50.840;4.386;2023-12-20T14:28:43;11.00;99.90
39675;DHT22;27790;50.840;4.386;2023-12-20T14:31:09;11.00;99.90
39675;DHT22;27790;50.840;4.386;2023-12-20T14:33:35;11.00;99.90
39675;DHT22;27790;50.840;4.386;2023-12-20T14:36:03;11.00;99.90
39675;DHT22;27790;50.840;4.386;2023-12-20T14:38:33;11.10;99.90
39675;DHT22;27790;50.840;4.386;2023-12-20T14:40:59;11.10;99.90
39675;DHT22;27790;50.840;4.386;2023-12-20T14:43:25;11.10;99.90
39675;DHT22;27790;50.840;4.386;2023-12-20T14:45:52;11.20;99.90
39675;DHT22;27790;50.840;4.386;2023-12-20T14:48:17;11.30;99.90
39675;DHT22;27790;50.840;4.386;2023-12-20T14:50:43;11.20;99.90
39675;DHT22;27790;50.840;4.386;2023-12-20T14:53:09;11.20;99.90
39675;DHT22;27790;50.840;4.386;2023-12-20T14:55:35;11.20;99.90
39675;DHT22;27790;50.840;4.386;2023-12-20T14:58:01;11.20;99.90
39675;DHT22;27790;50.840;4.386;2023-12-20T15:00:27;11.30;99.90
39675;DHT22;27790;50.840;4.386;2023-12-20T15:02:53;11.20;99.90
39675;DHT22;27790;50.840;4.386;2023-12-20T15:07:47;11.20;99.90
39675;DHT22;27790;50.840;4.386;2023-12-20T15:10:15;11.30;99.90
39675;DHT22;27790;50.840;4.386;2023-12-20T15:12:42;11.20;99.90
39675;DHT22;27790;50.840;4.386;2023-12-20T15:15:08;11.20;99.90
39675;DHT22;27790;50.840;4.386;2023-12-20T15:17:35;11.20;99.90
39675;DHT22;27790;50.840;4.386;2023-12-20T15:20:02;11.20;99.90
39675;DHT22;27790;50.840;4.386;2023-12-20T15:22:27;11.20;99.90
39675;DHT22;27790;50.840;4.386;2023-12-20T15:24:53;11.20;99.90
39675;DHT22;27790;50.840;4.386;2023-12-20T15:27:20;11.20;99.90
39675;DHT22;27790;50.840;4.386;2023-12-20T15:29:45;11.10;99.90
39675;DHT22;27790;50.840;4.386;2023-12-20T15:32:11;11.10;99.90
39675;DHT22;27790;50.840;4.386;2023-12-20T15:34:37;11.10;99.90
39675;DHT22;27790;50.840;4.386;2023-12-20T15:37:02;11.20;99.90
39675;DHT22;27790;50.840;4.386;2023-12-20T15:39:28;11.10;99.90
39675;DHT22;27790;50.840;4.386;2023-12-20T15:41:53;11.10;99.90